createdAt,value
2022-08-17T00:01:37.254Z,28.49
2022-08-17T00:04:19.886Z,28.08
2022-08-17T00:06:49.441Z,28.52
2022-08-17T00:09:18.323Z,28.30
2022-08-17T00:12:34.907Z,28.28
2022-08-17T00:14:36.096Z,28.13
2022-08-17T00:17:06.519Z,27.90
2022-08-17T00:19:34.116Z,27.41
2022-08-17T00:22:32.001Z,27.23
2022-08-17T00:24:50.665Z,27.42
2022-08-17T00:27:18.033Z,27.60
2022-08-17T00:29:45.955Z,27.57
2022-08-17T00:33:14.211Z,27.35
2022-08-17T00:35:05.005Z,27.55
2022-08-17T00:37:32.056Z,27.70
2022-08-17T00:39:58.897Z,27.82
2022-08-17T00:42:30.825Z,27.38
2022-08-17T00:44:58.940Z,27.78
2022-08-17T00:47:25.860Z,27.66
2022-08-17T00:49:52.755Z,27.43
2022-08-17T00:52:23.130Z,27.60
2022-08-17T00:54:54.027Z,27.67
2022-08-17T00:57:30.110Z,27.68
2022-08-17T01:00:06.411Z,27.52
2022-08-17T01:02:43.127Z,27.53
2022-08-17T01:05:15.069Z,27.54
2022-08-17T01:07:43.082Z,27.64
2022-08-17T01:11:00.185Z,27.67
2022-08-17T01:13:02.562Z,27.69
2022-08-17T01:15:37.460Z,27.51
2022-08-17T01:18:07.892Z,27.46
2022-08-17T01:20:48.584Z,27.56
2022-08-17T01:23:20.907Z,27.47
2022-08-17T01:25:51.391Z,27.51
2022-08-17T01:28:33.316Z,27.45
2022-08-17T01:31:08.258Z,27.23
2022-08-17T01:33:36.136Z,27.21
2022-08-17T01:36:04.194Z,27.25
2022-08-17T01:38:31.972Z,27.38
2022-08-17T01:41:04.772Z,27.31
2022-08-17T01:44:00.410Z,27.20
2022-08-17T01:46:32.117Z,27.07
2022-08-17T01:48:59.761Z,27.02
2022-08-17T01:51:32.477Z,27.03
2022-08-17T01:54:02.499Z,26.89
2022-08-17T01:56:31.628Z,26.97
2022-08-17T01:58:58.627Z,26.94
2022-08-17T02:01:28.101Z,26.98
2022-08-17T02:04:00.447Z,26.83
2022-08-17T02:06:44.826Z,26.72
2022-08-17T02:09:16.909Z,26.64
2022-08-17T02:11:44.775Z,26.28
2022-08-17T02:14:13.327Z,26.34
2022-08-17T02:16:40.912Z,26.61
2022-08-17T02:19:13.327Z,26.82
2022-08-17T02:21:43.039Z,26.28
2022-08-17T02:24:15.495Z,26.30
2022-08-17T02:26:42.491Z,26.01
2022-08-17T02:29:09.320Z,25.97
2022-08-17T02:31:36.318Z,26.16
2022-08-17T02:34:05.361Z,26.26
2022-08-17T02:36:34.559Z,26.46
2022-08-17T02:39:06.173Z,26.44
2022-08-17T02:41:33.137Z,26.35
2022-08-17T02:44:00.282Z,26.30
2022-08-17T02:46:27.574Z,26.43
2022-08-17T02:48:54.318Z,26.41
2022-08-17T02:51:21.104Z,26.37
2022-08-17T02:53:48.269Z,26.49
2022-08-17T02:56:15.122Z,26.38
2022-08-17T02:58:41.996Z,26.25
2022-08-17T03:01:10.555Z,26.08
2022-08-17T03:03:38.248Z,26.18
2022-08-17T03:06:06.312Z,26.08
2022-08-17T03:08:35.278Z,26.06
2022-08-17T03:11:02.095Z,26.05
2022-08-17T03:13:30.761Z,25.92
2022-08-17T03:15:57.880Z,26.08
2022-08-17T03:18:26.405Z,26.03
2022-08-17T03:21:01.274Z,25.86
2022-08-17T03:23:29.420Z,25.44
2022-08-17T03:25:57.314Z,25.48
2022-08-17T03:28:24.597Z,25.70
2022-08-17T03:30:52.115Z,25.58
2022-08-17T03:33:19.368Z,25.64
2022-08-17T03:35:46.367Z,25.68
2022-08-17T03:38:15.040Z,25.88
2022-08-17T03:40:56.674Z,25.77
2022-08-17T03:43:29.872Z,25.74
2022-08-17T03:46:27.940Z,25.71
2022-08-17T03:49:19.601Z,25.68
2022-08-17T03:52:05.140Z,25.77
2022-08-17T03:54:50.495Z,25.72
2022-08-17T03:57:19.289Z,25.65
2022-08-17T03:59:46.549Z,25.62
2022-08-17T04:02:19.887Z,25.67
2022-08-17T04:04:50.804Z,25.91
2022-08-17T04:07:20.012Z,25.89
2022-08-17T04:09:48.899Z,25.84
2022-08-17T04:12:18.440Z,25.73
2022-08-17T04:14:52.854Z,25.72
2022-08-17T04:17:23.378Z,25.46
2022-08-17T04:19:50.256Z,25.26
2022-08-17T04:22:30.666Z,25.22
2022-08-17T04:25:15.596Z,25.48
2022-08-17T04:27:42.549Z,25.55
2022-08-17T04:30:09.975Z,25.54
2022-08-17T04:33:10.602Z,25.78
2022-08-17T04:35:39.164Z,25.79
2022-08-17T04:38:08.012Z,25.88
2022-08-17T04:40:53.419Z,25.88
2022-08-17T04:43:22.972Z,25.88
2022-08-17T04:45:55.935Z,26.00
2022-08-17T04:48:36.512Z,26.28
2022-08-17T04:51:11.548Z,26.25
2022-08-17T04:53:41.572Z,26.22
2022-08-17T04:56:16.219Z,26.49
2022-08-17T04:58:45.814Z,26.50
2022-08-17T05:01:13.126Z,26.55
2022-08-17T05:03:40.200Z,26.44
2022-08-17T05:06:07.025Z,26.44
2022-08-17T05:08:33.843Z,26.03
2022-08-17T05:11:00.732Z,25.43
2022-08-17T05:13:31.648Z,25.58
2022-08-17T05:16:01.077Z,25.54
2022-08-17T05:18:29.543Z,26.13
2022-08-17T05:20:58.010Z,26.18
2022-08-17T05:23:26.964Z,26.44
2022-08-17T05:26:03.862Z,26.63
2022-08-17T05:28:34.984Z,26.71
2022-08-17T05:31:03.589Z,26.67
2022-08-17T05:33:34.217Z,26.31
2022-08-17T05:36:03.612Z,26.48
2022-08-17T05:38:31.147Z,26.56
2022-08-17T05:40:59.179Z,27.06
2022-08-17T05:43:30.141Z,26.70
2022-08-17T05:46:06.513Z,26.28
2022-08-17T05:48:46.249Z,26.13
2022-08-17T05:52:01.246Z,26.76
2022-08-17T05:54:44.796Z,27.04
2022-08-17T05:57:47.636Z,27.46
2022-08-17T06:00:59.905Z,27.28
2022-08-17T06:03:35.527Z,27.26
2022-08-17T06:06:17.576Z,27.59
2022-08-17T06:08:51.665Z,27.57
2022-08-17T06:11:24.352Z,27.43
2022-08-17T06:14:48.217Z,27.56
2022-08-17T06:17:21.980Z,27.67
2022-08-17T06:19:56.401Z,27.45
2022-08-17T06:22:28.090Z,27.81
2022-08-17T06:25:01.109Z,27.99
2022-08-17T06:27:58.687Z,28.12
2022-08-17T06:30:28.942Z,27.37
2022-08-17T06:33:22.336Z,27.46
2022-08-17T06:36:09.206Z,27.67
2022-08-17T06:38:56.358Z,27.81
2022-08-17T06:41:45.051Z,28.32
2022-08-17T06:44:42.294Z,28.09
2022-08-17T06:47:51.325Z,27.96
2022-08-17T06:50:42.491Z,28.65
2022-08-17T06:53:37.416Z,28.77
2022-08-17T06:56:08.778Z,28.36
2022-08-17T06:58:38.919Z,28.21
2022-08-17T07:01:28.345Z,28.95
2022-08-17T07:04:15.602Z,29.30
2022-08-17T07:06:58.176Z,29.41
2022-08-17T07:09:38.049Z,29.08
2022-08-17T07:12:17.372Z,28.69
2022-08-17T07:15:10.359Z,28.99
2022-08-17T07:17:47.357Z,29.13
2022-08-17T07:20:20.611Z,29.38
2022-08-17T07:22:59.871Z,29.45
2022-08-17T07:25:30.485Z,29.46
2022-08-17T07:28:02.440Z,29.56
2022-08-17T07:30:48.968Z,29.99
2022-08-17T07:33:20.055Z,30.17
2022-08-17T07:35:48.440Z,30.34
2022-08-17T07:38:24.919Z,30.44
2022-08-17T07:41:03.355Z,30.45
2022-08-17T07:43:39.551Z,30.40
2022-08-17T07:46:25.212Z,30.73
2022-08-17T07:48:55.291Z,30.83
2022-08-17T07:51:39.512Z,30.82
2022-08-17T07:54:15.392Z,31.18
2022-08-17T07:56:44.711Z,30.93
2022-08-17T07:59:14.397Z,31.21
2022-08-17T08:01:46.246Z,31.16
2022-08-17T08:04:59.151Z,31.59
2022-08-17T08:07:17.364Z,30.52
2022-08-17T08:10:03.987Z,31.12
2022-08-17T08:12:36.643Z,31.21
2022-08-17T08:15:09.714Z,30.95
2022-08-17T08:17:49.634Z,31.41
2022-08-17T08:20:34.915Z,31.69
2022-08-17T08:23:15.574Z,31.79
2022-08-17T08:26:30.977Z,31.54
2022-08-17T08:29:18.444Z,32.17
2022-08-17T08:31:57.674Z,32.12
2022-08-17T08:35:01.106Z,32.05
2022-08-17T08:37:47.432Z,31.74
2022-08-17T08:40:36.032Z,32.40
2022-08-17T08:43:06.002Z,32.74
2022-08-17T08:45:48.546Z,32.88
2022-08-17T08:48:53.226Z,31.83
2022-08-17T08:51:59.266Z,32.30
2022-08-17T08:54:35.941Z,32.47
2022-08-17T08:57:34.262Z,32.62
2022-08-17T09:00:15.113Z,32.83
2022-08-17T09:03:12.970Z,33.27
2022-08-17T09:06:06.816Z,33.28
2022-08-17T09:09:11.798Z,33.44
2022-08-17T09:12:01.374Z,33.66
2022-08-17T09:14:46.912Z,33.58
2022-08-17T09:18:21.406Z,33.34
2022-08-17T09:20:51.448Z,33.26
2022-08-17T09:23:42.456Z,33.28
2022-08-17T09:26:22.849Z,32.73
2022-08-17T09:29:01.410Z,32.96
2022-08-17T09:31:47.043Z,33.67
2022-08-17T09:34:22.117Z,34.18
2022-08-17T09:37:11.577Z,34.18
2022-08-17T09:39:58.309Z,33.69
2022-08-17T09:42:45.173Z,34.40
2022-08-17T09:45:42.643Z,34.14
2022-08-17T09:48:24.338Z,33.55
2022-08-17T09:51:07.125Z,33.22
2022-08-17T09:53:38.620Z,34.24
2022-08-17T09:56:56.523Z,34.62
2022-08-17T09:59:56.987Z,34.54
2022-08-17T10:02:40.554Z,34.48
2022-08-17T10:05:21.883Z,34.99
2022-08-17T10:07:55.978Z,34.66
2022-08-17T10:10:32.386Z,33.95
2022-08-17T10:13:24.141Z,33.87
2022-08-17T10:16:04.464Z,34.47
2022-08-17T10:19:02.194Z,34.40
2022-08-17T10:22:01.530Z,33.99
2022-08-17T10:25:22.856Z,33.20
2022-08-17T10:27:55.000Z,34.20
2022-08-17T10:30:26.785Z,34.74
2022-08-17T10:32:59.307Z,34.72
2022-08-17T10:35:44.662Z,34.35
2022-08-17T10:38:28.415Z,33.98
2022-08-17T10:41:03.351Z,34.41
2022-08-17T10:44:38.659Z,35.12
2022-08-17T10:47:09.126Z,34.50
2022-08-17T10:49:39.079Z,34.06
2022-08-17T10:52:24.921Z,34.47
2022-08-17T10:54:58.335Z,34.48
2022-08-17T10:57:45.952Z,34.45
2022-08-17T11:00:35.219Z,34.95
2022-08-17T11:03:03.754Z,34.34
2022-08-17T11:05:43.817Z,34.60
2022-08-17T11:08:32.140Z,35.04
2022-08-17T11:11:20.213Z,36.01
2022-08-17T11:14:08.813Z,35.99
2022-08-17T11:16:54.219Z,36.43
2022-08-17T11:19:47.271Z,36.16
2022-08-17T11:22:20.158Z,36.53
2022-08-17T11:24:51.341Z,36.80
2022-08-17T11:27:32.396Z,36.43
2022-08-17T11:30:05.370Z,35.83
2022-08-17T11:32:47.825Z,36.01
2022-08-17T11:35:21.460Z,36.04
2022-08-17T11:37:59.003Z,36.40
2022-08-17T11:40:50.952Z,35.79
2022-08-17T11:43:42.946Z,35.60
2022-08-17T11:46:59.468Z,35.22
2022-08-17T11:50:01.350Z,34.88
2022-08-17T11:52:48.012Z,35.19
2022-08-17T11:55:38.515Z,35.11
2022-08-17T11:58:30.606Z,34.80
2022-08-17T12:01:23.327Z,33.97
2022-08-17T12:03:57.197Z,34.84
2022-08-17T12:06:29.654Z,35.06
2022-08-17T12:09:12.383Z,34.94
2022-08-17T12:11:56.393Z,35.04
2022-08-17T12:15:08.440Z,35.17
2022-08-17T12:17:41.525Z,35.19
2022-08-17T12:20:40.359Z,35.29
2022-08-17T12:23:50.250Z,35.71
2022-08-17T12:26:25.186Z,35.21
2022-08-17T12:29:03.297Z,35.38
2022-08-17T12:31:44.287Z,35.70
2022-08-17T12:34:34.967Z,34.67
2022-08-17T12:37:19.450Z,34.86
2022-08-17T12:39:57.866Z,34.98
2022-08-17T12:42:29.635Z,34.88
2022-08-17T12:44:57.172Z,35.17
2022-08-17T12:47:24.438Z,35.61
2022-08-17T12:50:08.321Z,35.65
2022-08-17T12:52:59.648Z,36.13
2022-08-17T12:55:35.110Z,36.54
2022-08-17T12:58:02.415Z,36.61
2022-08-17T13:00:32.436Z,36.30
2022-08-17T13:03:07.901Z,36.59
2022-08-17T13:05:44.155Z,36.67
2022-08-17T13:08:24.569Z,36.51
2022-08-17T13:10:58.707Z,36.45
2022-08-17T13:13:34.841Z,37.26
2022-08-17T13:16:04.568Z,36.68
2022-08-17T13:18:36.004Z,36.42
2022-08-17T13:21:02.975Z,36.90
2022-08-17T13:23:32.350Z,37.23
2022-08-17T13:26:07.708Z,37.54
2022-08-17T13:28:37.547Z,37.50
2022-08-17T13:31:28.191Z,37.29
2022-08-17T13:34:18.685Z,37.13
2022-08-17T13:36:48.871Z,36.32
2022-08-17T13:39:20.983Z,36.23
2022-08-17T13:41:50.123Z,36.86
2022-08-17T13:44:32.695Z,36.97
2022-08-17T13:47:00.841Z,37.64
2022-08-17T13:49:49.028Z,37.64
2022-08-17T13:52:40.235Z,37.87
2022-08-17T13:55:17.840Z,37.68
2022-08-17T13:58:03.503Z,37.79
2022-08-17T14:00:36.349Z,37.73
2022-08-17T14:03:05.350Z,37.37
2022-08-17T14:05:32.564Z,37.50
2022-08-17T14:08:06.805Z,38.22
2022-08-17T14:10:36.434Z,37.71
2022-08-17T14:13:04.849Z,37.68
2022-08-17T14:15:54.950Z,37.50
2022-08-17T14:18:50.581Z,37.85
2022-08-17T14:21:08.860Z,37.37
2022-08-17T14:23:37.134Z,37.66
2022-08-17T14:26:04.729Z,37.50
2022-08-17T14:28:32.154Z,37.72
2022-08-17T14:31:00.868Z,37.42
2022-08-17T14:33:31.964Z,37.88
2022-08-17T14:35:58.863Z,37.67
2022-08-17T14:38:25.861Z,38.07
2022-08-17T14:40:52.897Z,38.09
2022-08-17T14:43:20.455Z,38.46
2022-08-17T14:45:49.752Z,38.03
2022-08-17T14:48:16.553Z,37.82
2022-08-17T14:50:44.289Z,38.16
2022-08-17T14:53:13.552Z,38.54
2022-08-17T14:55:40.781Z,38.65
2022-08-17T14:58:08.814Z,38.45
2022-08-17T15:00:36.735Z,38.95
2022-08-17T15:03:04.270Z,38.69
2022-08-17T15:05:34.697Z,38.68
2022-08-17T15:08:03.564Z,38.40
2022-08-17T15:10:31.554Z,39.17
2022-08-17T15:12:58.807Z,39.51
2022-08-17T15:15:26.338Z,38.91
2022-08-17T15:17:53.253Z,38.76
2022-08-17T15:20:23.887Z,38.47
2022-08-17T15:22:51.048Z,38.72
2022-08-17T15:25:19.144Z,38.68
2022-08-17T15:27:47.486Z,38.44
2022-08-17T15:30:15.154Z,38.13
2022-08-17T15:32:50.839Z,38.59
2022-08-17T15:35:27.957Z,38.58
2022-08-17T15:38:06.274Z,38.40
2022-08-17T15:40:41.587Z,38.45
2022-08-17T15:43:11.705Z,38.61
2022-08-17T15:45:39.370Z,38.40
2022-08-17T15:48:06.913Z,38.82
2022-08-17T15:50:36.233Z,38.78
2022-08-17T15:53:04.802Z,38.67
2022-08-17T15:55:33.254Z,38.63
2022-08-17T15:58:00.628Z,38.03
2022-08-17T16:00:29.205Z,38.21
2022-08-17T16:03:47.068Z,37.75
2022-08-17T16:05:47.340Z,37.82
2022-08-17T16:08:20.128Z,37.68
2022-08-17T16:10:47.857Z,37.37
2022-08-17T16:13:17.894Z,36.74
2022-08-17T16:15:49.755Z,36.67
2022-08-17T16:18:31.140Z,36.12
2022-08-17T16:21:23.968Z,36.39
2022-08-17T16:24:03.893Z,36.34
2022-08-17T16:26:32.997Z,36.46
2022-08-17T16:29:01.807Z,36.46
2022-08-17T16:31:29.396Z,36.48
2022-08-17T16:34:16.124Z,36.53
2022-08-17T16:36:54.722Z,35.86
2022-08-17T16:39:24.645Z,35.57
2022-08-17T16:41:51.396Z,35.76
2022-08-17T16:44:20.821Z,35.82
2022-08-17T16:46:48.934Z,35.87
2022-08-17T16:49:34.448Z,36.03
2022-08-17T16:52:04.784Z,35.79
2022-08-17T16:54:31.966Z,35.58
2022-08-17T16:56:58.856Z,35.31
2022-08-17T16:59:38.792Z,35.37
2022-08-17T17:02:11.388Z,35.07
2022-08-17T17:04:50.649Z,35.00
2022-08-17T17:07:40.249Z,35.09
2022-08-17T17:10:14.459Z,35.09
2022-08-17T17:13:03.133Z,35.04
2022-08-17T17:15:45.613Z,34.74
2022-08-17T17:18:14.820Z,34.85
2022-08-17T17:20:54.771Z,34.60
2022-08-17T17:23:30.496Z,35.07
2022-08-17T17:26:17.082Z,35.20
2022-08-17T17:29:10.517Z,35.03
2022-08-17T17:31:44.624Z,34.57
2022-08-17T17:34:16.265Z,34.77
2022-08-17T17:36:51.933Z,34.77
2022-08-17T17:39:43.602Z,34.52
2022-08-17T17:42:14.799Z,34.56
2022-08-17T17:44:54.220Z,34.02
2022-08-17T17:47:21.479Z,33.93
2022-08-17T17:49:48.776Z,33.87
2022-08-17T17:52:24.504Z,34.28
2022-08-17T17:55:03.362Z,33.86
2022-08-17T17:57:48.892Z,33.62
2022-08-17T18:00:24.279Z,33.65
2022-08-17T18:02:52.784Z,32.92
2022-08-17T18:05:22.838Z,33.14
2022-08-17T18:08:09.288Z,33.24
2022-08-17T18:10:58.045Z,32.92
2022-08-17T18:13:27.569Z,33.32
2022-08-17T18:15:56.400Z,33.35
2022-08-17T18:18:37.578Z,33.35
2022-08-17T18:21:15.836Z,33.31
2022-08-17T18:23:51.860Z,33.35
2022-08-17T18:26:38.222Z,33.31
2022-08-17T18:29:37.581Z,33.59
2022-08-17T18:32:23.823Z,32.71
2022-08-17T18:35:27.925Z,33.48
2022-08-17T18:38:20.445Z,33.44
2022-08-17T18:40:58.657Z,33.42
2022-08-17T18:43:44.393Z,33.35
2022-08-17T18:46:35.101Z,33.46
2022-08-17T18:49:24.238Z,33.23
2022-08-17T18:52:09.728Z,33.47
2022-08-17T18:54:37.356Z,33.25
2022-08-17T18:57:06.673Z,33.12
2022-08-17T18:59:44.460Z,33.12
2022-08-17T19:02:22.064Z,33.49
2022-08-17T19:04:53.310Z,33.25
2022-08-17T19:07:23.663Z,33.18
2022-08-17T19:10:16.389Z,32.69
2022-08-17T19:13:13.984Z,32.60
2022-08-17T19:15:44.260Z,32.30
2022-08-17T19:18:30.802Z,31.63
2022-08-17T19:21:07.744Z,31.58
2022-08-17T19:23:53.936Z,31.73
2022-08-17T19:26:54.199Z,32.05
2022-08-17T19:29:25.647Z,31.81
2022-08-17T19:31:56.217Z,31.67
2022-08-17T19:34:29.904Z,31.09
2022-08-17T19:37:09.983Z,31.52
2022-08-17T19:39:58.001Z,30.66
2022-08-17T19:42:47.729Z,31.01
2022-08-17T19:45:36.726Z,31.16
2022-08-17T19:48:09.656Z,31.02
2022-08-17T19:50:58.233Z,30.91
2022-08-17T19:54:05.973Z,31.13
2022-08-17T19:56:57.936Z,31.08
2022-08-17T19:59:57.400Z,31.13
2022-08-17T20:03:09.144Z,31.11
2022-08-17T20:06:09.186Z,31.34
2022-08-17T20:08:38.857Z,31.08
2022-08-17T20:11:20.374Z,31.14
2022-08-17T20:13:59.703Z,31.28
2022-08-17T20:16:27.036Z,31.08
2022-08-17T20:19:16.671Z,31.39
2022-08-17T20:21:54.324Z,31.19
2022-08-17T20:24:46.936Z,31.57
2022-08-17T20:27:36.179Z,31.69
2022-08-17T20:30:38.484Z,31.49
2022-08-17T20:33:26.597Z,31.93
2022-08-17T20:36:02.000Z,31.90
2022-08-17T20:38:41.641Z,31.80
2022-08-17T20:41:17.876Z,31.58
2022-08-17T20:43:50.860Z,31.18
2022-08-17T20:46:35.868Z,31.39
2022-08-17T20:49:08.660Z,30.84
2022-08-17T20:52:00.701Z,30.85
2022-08-17T20:54:41.580Z,30.71
2022-08-17T20:57:14.331Z,30.84
2022-08-17T20:59:45.165Z,30.83
2022-08-17T21:02:20.073Z,30.88
2022-08-17T21:04:49.856Z,30.95
2022-08-17T21:07:34.481Z,31.24
2022-08-17T21:10:22.272Z,31.36
2022-08-17T21:13:15.302Z,31.13
2022-08-17T21:15:51.789Z,31.32
2022-08-17T21:18:21.656Z,31.13
2022-08-17T21:21:01.777Z,31.16
2022-08-17T21:24:01.127Z,31.19
2022-08-17T21:26:50.395Z,31.16
2022-08-17T21:29:32.368Z,31.09
2022-08-17T21:32:05.721Z,31.06
2022-08-17T21:34:42.481Z,30.78
2022-08-17T21:37:29.604Z,30.77
2022-08-17T21:39:58.702Z,30.75
2022-08-17T21:42:32.550Z,30.60
2022-08-17T21:45:10.506Z,30.51
2022-08-17T21:47:43.445Z,30.44
2022-08-17T21:50:23.497Z,30.45
2022-08-17T21:52:54.088Z,30.35
2022-08-17T21:55:28.478Z,30.40
2022-08-17T21:58:14.034Z,30.19
2022-08-17T22:00:44.479Z,30.24
2022-08-17T22:03:30.291Z,30.08
2022-08-17T22:05:57.125Z,29.97
2022-08-17T22:08:26.438Z,29.92
2022-08-17T22:11:02.035Z,29.86
2022-08-17T22:13:29.854Z,29.81
2022-08-17T22:16:15.475Z,29.77
2022-08-17T22:18:57.924Z,29.76
2022-08-17T22:21:25.889Z,29.76
2022-08-17T22:24:06.273Z,29.78
2022-08-17T22:27:00.307Z,29.80
2022-08-17T22:29:53.317Z,29.48
2022-08-17T22:32:38.145Z,29.61
2022-08-17T22:35:43.673Z,29.72
2022-08-17T22:38:19.903Z,29.77
2022-08-17T22:40:49.671Z,29.56
2022-08-17T22:43:21.322Z,29.43
2022-08-17T22:45:56.762Z,29.14
2022-08-17T22:48:27.468Z,29.32
2022-08-17T22:51:12.780Z,29.25
2022-08-17T22:54:12.617Z,29.52
2022-08-17T22:57:15.035Z,29.58
2022-08-17T22:59:50.234Z,29.45
2022-08-17T23:02:17.167Z,29.30
2022-08-17T23:04:48.692Z,29.31
2022-08-17T23:07:15.893Z,29.39
2022-08-17T23:09:42.764Z,29.40
2022-08-17T23:12:14.896Z,29.43
2022-08-17T23:14:45.516Z,29.22
2022-08-17T23:17:13.440Z,29.25
2022-08-17T23:19:40.557Z,28.73
2022-08-17T23:22:09.777Z,28.83
2022-08-17T23:24:46.288Z,28.86
2022-08-17T23:27:13.207Z,28.84
2022-08-17T23:29:41.989Z,28.67
2022-08-17T23:32:13.517Z,28.31
2022-08-17T23:34:42.972Z,28.44
2022-08-17T23:37:12.079Z,28.58
2022-08-17T23:39:39.874Z,28.45
2022-08-17T23:42:11.110Z,28.46
2022-08-17T23:44:40.106Z,28.40
2022-08-17T23:47:07.819Z,28.45
2022-08-17T23:49:36.248Z,28.10
2022-08-17T23:52:07.181Z,28.36
2022-08-17T23:54:43.855Z,27.48
2022-08-17T23:57:17.380Z,27.89
2022-08-17T23:59:45.068Z,28.23
